Etusivu
METAR-TAF:

METAR-TAF

Lentoasemat :

Öljynporauslautta

Sleipner, Norja

Leveyspiiri: 58-22-00N, Pituuspiiri: 001-54-25E, korkeus merenpinnasta: 50 m

Tämänhetkinen sää

Tämä raportti tehtiin 26 minuuttia sitten, kello 04.20 UTC
Tuuli 21 kn idästä/kaakosta
Lämpötila 11°C
Kosteus 100%
Ilmanpaine 998 hPa
Näkyvyys 10 km tai enemmän

METAR: ENSL 150420Z AUTO 12021KT 9999 OVC002/// 11/11 Q0998 W10/S4

Aika: 06:46 (04:46 UTC)


TAF: puuttuu

Säähavainnot ja -ennusteet yli 4000 lentoasemalta (METAR- ja TAF-raportit).

Käytössä olevat sääasemat on merkitty karttaan keltaisilla ja punaisilla pisteillä.

Aseta hiiri pisteen päälle nähdäksesi sääaseman nimen.

Klikkaa sitten nähdäksesi säähavainnot ja -ennusteet.

Kartan vaihtaminen: klikkaa mustalla rastilla varustettuja vihreitä pisteitä, niin voit zoomata sisään; viivalla varustettua vihreää pistettä, niin voit zoomata ulos tai vihreitä nuolia, niin pääset viereisille kartoille.


METAR-TAF: